Aeroporto :
LOGIN :

Iscrizione | Disclaimer

   EN    FR    IT 

 










Sommario :    VFR   VFR Marginale   IFR   IFR Intensivo   IFR Molto Intensivo
Visibilità : 
Base nubi : 
>= 8 km
>= 3000ft
5 / 8 km
1000 / 3000 ft
1500m / 5 km
500 / 1000 ft
800 / 1500m
200 / 500 ft
< 800m
< 200 ft
Simboli :   Temporali  Nebbia  Neve Forte  Precipitazioni Forti  Vento > 20 kt
SIGMETs :   Varie  Temporali  Ghiacco  Turbolenza  Onda orograficha  Ceneri Vulcaniche






- Altitudine del aeroporto : 13 ft
- Codice IATA : LYX


EGMD - Lydd

ULTIMO METAR :
  • 101550Z 21030KT 8000 BKN016 10/09 Q1012

METARs OBSOLETI :
  • 101520Z 20028KT 8000 -RA BKN013 10/09 Q1012
  • 101450Z 20028G39KT 7000 -RA BKN016 BKN022 10/08 Q1013
  • 101420Z 20028KT 9000 SCT013 BKN017 BKN023 10/08 Q1013
  • 101350Z 20030KT 7000 -RA BKN012 BKN017 09/08 Q1014
  • 101320Z 20027G37KT 9000 -RA BKN011 10/08 Q1015

TAF TAF EGMD
Valido dal 10 a 15 ore il 11 a 00 ore UTC


101353Z 1015/1024 20024G38KT 9999 BKN020
TEMPO 1015/1024 7000 RADZ BKN014
PROB30
TEMPO 1019/1024 23028G43KT 3000 +RA
ATIS : +44 1797 322 422



MetMap, La meteo Aeronautica in un colpo d'occhio ! - Copyright ORBIFLY Dicembre 2007 - Disclaimer

ORBIFLY MET'MAP TEAM :

Programmazione e sviluppo : Alexandra Zaïnal
Concezione : Baudouin d'Aumeries
Aiuto per la programmazione : Marc-Olivier Méhu
Supporto tecnico e logistico : Manuel Goepfert
Aiuto per la traduzione : Arnaldo La Scala

Contatto : metmap@orbifly.com




FONTI E CREDITI :

   NOAA